Latest Weather Observations for Tatura

IDV60801

Issued at 4:32 pm EST Thursday 29 September 2016 (issued every 30 minutes, with the page automatically refreshed every 10 minutes)

About weather observations | Map of weather stations | Latest weather observations for VIC | Other Formats
Station Details ID: 081049 Name: TATURA INST SUSTAINABLE AG Lat: -36.44 Lon: 145.27 Height: 114.0 m
Data from the previous 72 hours. | See also: Recent months at Tatura
Date/Time
EST
Temp
°C
App
Temp
°C
Dew
Point
°C
Rel
Hum
%
Delta-T
°C
Wind Press
QNH
hPa
Press
MSL
hPa
Rain since
9am
mm
Dir  Spd
km/h
Gust
km/h
Spd
kts
Gust
kts
29/04:30pm 9.1 3.7 8.2 94 0.4 N 26 37 14 20 - - 2.0
29/04:20pm 8.6 1.4 7.5 93 0.5 NNW 35 54 19 29 - - 1.4
29/04:13pm 9.7 1.3 7.3 85 1.1 NW 41 54 22 29 - - 0.2
29/04:08pm 11.6 4.5 5.5 66 2.8 N 32 50 17 27 - - 0.0
29/04:00pm 11.6 5.3 5.7 67 2.8 N 28 41 15 22 - - 0.0
29/03:30pm 11.8 8.1 9.5 86 1.2 N 19 28 10 15 - - 0.0
29/03:06pm 12.4 5.6 5.1 61 3.4 N 30 56 16 30 - - 0.0
29/03:00pm 13.4 6.5 6.3 62 3.4 N 32 43 17 23 - - 0.0
29/02:30pm 13.9 6.5 5.0 55 4.2 N 33 48 18 26 - - 0.0
29/02:14pm 14.1 7.3 4.9 54 4.3 N 30 50 16 27 - - 0.0
29/02:00pm 14.0 6.6 5.1 55 4.2 N 33 46 18 25 - - 0.0
29/01:30pm 14.5 8.6 7.3 62 3.6 N 28 44 15 24 - - 0.0
29/01:00pm 13.6 8.6 4.7 55 4.1 N 20 33 11 18 - - 0.0
29/12:30pm 13.8 8.7 5.9 59 3.8 N 22 33 12 18 - - 0.0
29/12:00pm 12.3 7.3 4.8 60 3.5 NNW 20 30 11 16 - - 0.0
29/11:30am 12.3 7.1 5.7 64 3.1 NW 22 32 12 17 - - 0.0
29/11:00am 13.1 7.9 7.1 67 2.9 NNW 24 32 13 17 - - 0.0
29/10:30am 12.9 8.4 7.1 68 2.8 NW 20 28 11 15 - - 0.0
29/10:00am 12.2 7.6 6.5 68 2.7 NW 20 30 11 16 - - 0.0
29/09:30am 12.0 7.8 8.3 78 1.8 NW 20 30 11 16 - - 0.0
29/09:00am 10.0 5.2 7.4 84 1.2 NW 22 33 12 18 - - 11.6
29/08:30am 9.3 4.6 7.7 90 0.8 NW 22 28 12 15 - - 11.6
29/08:00am 9.6 4.4 7.4 86 1.1 WNW 24 32 13 17 - - 11.4
29/07:39am 10.0 4.1 7.4 84 1.2 NW 28 44 15 24 - - 11.2
29/07:30am 10.2 6.6 8.5 89 0.8 NW 17 26 9 14 - - 11.2
29/07:00am 10.4 5.4 8.2 86 1.1 NNW 24 35 13 19 - - 11.2
29/06:30am 11.4 8.8 10.6 95 0.4 N 15 19 8 10 - - 11.2
29/06:00am 11.5 8.5 10.7 95 0.4 NNE 17 24 9 13 - - 11.2
29/05:30am 11.6 7.9 10.3 92 0.7 N 20 30 11 16 - - 11.2
29/05:00am 12.3 7.5 11.7 96 0.3 N 28 37 15 20 - - 10.6
29/04:30am 12.4 7.7 11.9 97 0.3 N 28 46 15 25 - - 10.0
29/04:29am 12.4 7.7 11.9 97 0.3 NNE 28 46 15 25 - - 10.0
29/04:00am 12.4 7.7 12.1 98 0.2 N 28 39 15 21 - - 9.8
29/03:30am 12.3 7.9 11.8 97 0.3 NNE 26 44 14 24 - - 9.6
29/03:09am 12.3 7.1 11.7 96 0.3 NNE 30 48 16 26 - - 8.8
29/03:00am 12.3 6.8 11.7 96 0.3 NNE 32 43 17 23 - - 8.6
29/02:30am 12.1 6.2 11.3 95 0.4 NNE 33 50 18 27 - - 8.0
29/02:21am 12.0 6.7 11.2 95 0.4 NE 30 48 16 26 - - 7.6
29/02:00am 11.9 6.5 11.0 94 0.5 NE 30 43 16 23 - - 6.2
29/01:38am 11.9 6.8 10.6 92 0.7 NE 28 46 15 25 - - 4.6
29/01:30am 12.0 6.1 10.6 91 0.7 NE 32 46 17 25 - - 4.2
29/01:00am 11.8 7.8 10.4 91 0.7 NE 22 37 12 20 - - 2.8
29/12:30am 12.4 6.8 10.1 86 1.2 NE 30 43 16 23 - - 1.4
29/12:00am 12.9 7.1 9.4 79 1.8 NE 30 52 16 28 - - 0.6
 
Date/Time
EST
Temp
°C
App
Temp
°C
Dew
Point
°C
Rel
Hum
%
Delta-T
°C
Wind Press
QNH
hPa
Press
MSL
hPa
Rain since
9am
mm
Dir  Spd
km/h
Gust
km/h
Spd
kts
Gust
kts
28/11:30pm 12.9 7.9 9.5 80 1.7 NE 26 35 14 19 - - 0.6
28/11:00pm 13.0 6.5 9.1 77 2.0 ENE 33 46 18 25 - - 0.2
28/10:30pm 13.9 7.5 8.5 70 2.7 ENE 32 52 17 28 - - 0.0
28/10:11pm 13.9 7.9 8.7 71 2.6 ENE 30 54 16 29 - - 0.0
28/10:00pm 13.8 8.3 9.0 73 2.4 NE 28 37 15 20 - - 0.0
28/09:42pm 13.9 8.3 8.9 72 2.5 NE 28 46 15 25 - - 0.0
28/09:30pm 13.7 8.5 8.7 72 2.5 NE 26 41 14 22 - - 0.0
28/09:00pm 13.6 8.8 8.7 72 2.5 NE 24 35 13 19 - - 0.0
28/08:30pm 13.5 9.0 8.6 72 2.5 NE 22 32 12 17 - - 0.0
28/08:00pm 13.6 9.1 8.7 72 2.5 NE 22 35 12 19 - - 0.0
28/07:30pm 13.7 9.6 8.7 72 2.5 NE 20 28 11 15 - - 0.0
28/07:00pm 13.6 9.8 8.9 73 2.4 ENE 19 26 10 14 - - 0.0
28/06:30pm 13.9 10.0 8.7 71 2.6 ENE 19 24 10 13 - - 0.0
28/06:00pm 14.7 10.5 8.4 66 3.2 NE 20 28 11 15 - - 0.0
28/05:30pm 14.9 10.7 8.2 64 3.4 NE 20 33 11 18 - - 0.0
28/05:00pm 15.4 10.5 8.4 63 3.6 NE 24 37 13 20 - - 0.0
28/04:30pm 15.6 11.0 8.1 61 3.8 NNE 22 32 12 17 - - 0.0
28/04:00pm 16.5 11.1 8.2 58 4.2 NE 26 35 14 19 - - 0.0
28/03:30pm 16.3 10.9 8.0 58 4.2 NE 26 35 14 19 - - 0.0
28/03:00pm 15.6 9.7 7.6 59 4.0 NE 28 41 15 22 - - 0.0
28/02:30pm 16.9 11.6 8.6 58 4.3 NNE 26 39 14 21 - - 0.0
28/02:00pm 15.6 10.7 7.1 57 4.2 NNE 22 33 12 18 - - 0.0
28/01:30pm 17.0 12.9 8.7 58 4.3 NNE 20 30 11 16 - - 0.0
28/01:00pm 16.2 11.9 7.9 58 4.2 NE 20 32 11 17 - - 0.0
28/12:30pm 15.8 12.2 8.3 61 3.8 NE 17 22 9 12 - - 0.0
28/12:00pm 15.7 11.9 7.7 59 4.0 NE 17 22 9 12 - - 0.0
28/11:30am 15.7 12.1 8.2 61 3.8 NE 17 24 9 13 - - 0.0
28/11:00am 15.2 11.1 8.0 62 3.6 NE 19 24 10 13 - - 0.0
28/10:30am 14.5 11.1 7.5 63 3.5 N 15 22 8 12 - - 0.0
28/10:00am 14.1 10.9 8.3 68 2.9 NE 15 20 8 11 - - 0.0
28/09:30am 13.0 9.9 7.2 68 2.8 NE 13 20 7 11 - - 0.0
28/09:00am 12.1 9.6 8.0 76 2.0 ENE 11 15 6 8 - - 0.4
28/08:30am 10.9 8.4 8.1 83 1.4 ENE 11 13 6 7 - - 0.4
28/08:00am 9.5 6.4 7.3 86 1.0 ENE 13 17 7 9 - - 0.4
28/07:30am 8.2 5.1 7.4 95 0.4 ENE 13 17 7 9 - - 0.4
28/07:00am 6.6 3.7 6.6 100 0.0 ENE 11 15 6 8 - - 0.4
28/06:30am 4.3 1.7 4.3 100 0.0 NE 7 9 4 5 - - 0.4
28/06:00am 2.3 -0.1 2.2 99 0.0 NE 4 9 2 5 - - 0.4
28/05:30am 2.7 0.0 2.6 99 0.0 E 6 7 3 4 - - 0.4
28/05:00am 3.1 1.2 3.0 99 0.0 NNE 2 9 1 5 - - 0.4
28/04:30am 2.6 1.0 2.5 99 0.0 CALM 0 0 0 0 - - 0.4
28/04:00am 2.9 1.4 2.8 99 0.0 CALM 0 0 0 0 - - 0.4
28/03:30am 3.5 2.1 3.4 99 0.0 CALM 0 0 0 0 - - 0.4
28/03:00am 3.6 2.2 3.5 99 0.0 CALM 0 0 0 0 - - 0.4
28/02:30am 3.4 2.0 3.3 99 0.0 CALM 0 0 0 0 - - 0.4
28/02:00am 3.8 2.4 3.7 99 0.0 CALM 0 0 0 0 - - 0.4
28/01:30am 3.7 2.3 3.6 99 0.0 CALM 0 0 0 0 - - 0.4
28/01:00am 3.9 2.5 3.6 98 0.1 CALM 0 0 0 0 - - 0.4
28/12:30am 4.8 2.4 4.5 98 0.1 N 6 6 3 3 - - 0.4
28/12:00am 4.6 2.0 4.3 98 0.1 N 7 9 4 5 - - 0.4
 
Date/Time
EST
Temp
°C
App
Temp
°C
Dew
Point
°C
Rel
Hum
%
Delta-T
°C
Wind Press
QNH
hPa
Press
MSL
hPa
Rain since
9am
mm
Dir  Spd
km/h
Gust
km/h
Spd
kts
Gust
kts
27/11:30pm 5.6 3.4 5.3 98 0.1 NNW 6 9 3 5 - - 0.4
27/11:00pm 5.7 4.6 5.1 96 0.3 CALM 0 0 0 0 - - 0.4
27/10:30pm 6.1 5.0 5.1 93 0.4 CALM 0 0 0 0 - - 0.4
27/10:00pm 7.3 6.4 5.9 91 0.6 CALM 0 0 0 0 - - 0.4
27/09:30pm 8.5 7.7 6.5 87 0.9 CALM 0 0 0 0 - - 0.4
27/09:00pm 8.7 7.5 6.5 86 1.0 NW 2 6 1 3 - - 0.4
27/08:30pm 9.2 7.1 6.8 85 1.1 NW 7 9 4 5 - - 0.4
27/08:00pm 9.6 6.9 7.2 85 1.1 WNW 11 15 6 8 - - 0.4
27/07:30pm 11.1 8.7 8.8 86 1.1 NW 11 15 6 8 - - 0.4
27/07:00pm 11.4 9.7 9.8 90 0.8 NW 9 13 5 7 - - 0.4
27/06:30pm 11.7 9.5 9.4 86 1.2 WNW 11 15 6 8 - - 0.0
27/06:00pm 11.7 8.9 8.6 81 1.5 NW 13 15 7 8 - - 0.0
27/05:30pm 12.4 9.9 8.3 76 2.0 NNW 11 13 6 7 - - 0.0
27/05:00pm 14.6 12.5 9.6 72 2.6 WNW 11 15 6 8 - - 0.0
27/04:30pm 13.9 11.2 9.1 73 2.5 NW 13 20 7 11 - - 0.0
27/04:00pm 14.5 10.7 8.9 69 2.9 NW 19 20 10 11 - - 0.0
27/03:30pm 14.0 11.4 7.8 66 3.1 SW 11 13 6 7 - - 0.0
27/03:00pm 15.0 12.7 7.5 61 3.7 WSW 9 13 5 7 - - 0.0
27/02:30pm 14.5 11.0 7.3 62 3.6 W 15 20 8 11 - - 0.0
27/02:00pm 14.2 11.5 8.8 70 2.7 W 13 20 7 11 - - 0.0
27/01:30pm 12.8 8.9 7.3 69 2.7 W 17 24 9 13 - - 0.0
27/01:00pm 13.1 9.1 8.2 72 2.4 WSW 19 24 10 13 - - 0.0
27/12:30pm 13.2 10.0 8.3 72 2.4 WSW 15 22 8 12 - - 0.0
27/12:00pm 12.7 8.9 7.6 71 2.5 W 17 24 9 13 - - 0.0
27/11:30am 12.2 7.8 7.5 73 2.3 WSW 20 28 11 15 - - 0.0
27/11:00am 11.5 8.0 7.4 76 2.0 WSW 15 22 8 12 - - 0.0
27/10:30am 12.3 8.8 8.8 79 1.8 W 17 24 9 13 - - 0.0
27/10:00am 11.1 7.6 7.2 77 1.9 WNW 15 20 8 11 - - 0.0
27/09:30am 10.0 6.3 6.3 78 1.7 W 15 22 8 12 - - 0.0
27/09:00am 9.5 7.5 7.3 86 1.0 W 7 15 4 8 - - 3.6
27/08:30am 7.8 4.4 6.1 89 0.8 W 13 17 7 9 - - 3.6
27/08:00am 6.6 2.8 6.0 96 0.3 WNW 15 20 8 11 - - 3.6
27/07:30am 6.3 3.0 6.2 99 0.0 WNW 13 17 7 9 - - 3.6
27/07:00am 5.0 2.2 5.0 100 0.0 W 9 15 5 8 - - 3.6
27/06:30am 3.5 1.7 3.4 99 0.0 W 2 6 1 3 - - 3.6
27/06:00am 3.5 0.4 3.4 99 0.0 WNW 9 13 5 7 - - 3.6
27/05:30am 3.9 0.1 3.8 99 0.0 WNW 13 17 7 9 - - 3.6
27/05:00am 4.4 0.3 4.3 99 0.0 WNW 15 17 8 9 - - 3.6
27/04:30am 4.6 0.9 4.3 98 0.1 WNW 13 17 7 9 - - 3.4
27/04:00am 5.1 1.4 4.7 97 0.2 W 13 17 7 9 - - 3.4
27/03:30am 5.4 2.5 4.8 96 0.3 W 9 15 5 8 - - 3.4
27/03:00am 5.3 1.6 4.7 96 0.3 WNW 13 15 7 8 - - 3.4
27/02:30am 5.2 1.9 4.8 97 0.2 WNW 11 13 6 7 - - 3.4
27/02:00am 5.5 2.3 5.1 97 0.2 WNW 11 13 6 7 - - 3.4
27/01:30am 5.9 3.2 5.5 97 0.2 WNW 9 11 5 6 - - 3.4
27/01:00am 6.5 3.5 6.1 97 0.2 WNW 11 13 6 7 - - 3.4
27/12:30am 7.5 5.1 6.8 95 0.3 WNW 9 11 5 6 - - 3.4
27/12:00am 8.7 6.5 7.8 94 0.4 W 9 13 5 7 - - 3.4
 
Date/Time
EST
Temp
°C
App
Temp
°C
Dew
Point
°C
Rel
Hum
%
Delta-T
°C
Wind Press
QNH
hPa
Press
MSL
hPa
Rain since
9am
mm
Dir  Spd
km/h
Gust
km/h
Spd
kts
Gust
kts
26/11:30pm 9.3 6.4 8.2 93 0.5 SW 13 22 7 12 - - 3.4
26/11:00pm 9.7 5.9 9.1 96 0.3 WNW 19 26 10 14 - - 2.6
26/10:30pm 9.6 7.9 8.4 92 0.6 WNW 7 9 4 5 - - 1.0
26/10:00pm 9.9 7.4 8.0 88 0.9 N 11 15 6 8 - - 0.6
26/09:30pm 10.5 8.4 8.1 85 1.2 NNW 9 15 5 8 - - 0.6
26/09:00pm 11.1 8.5 7.6 79 1.7 NW 11 17 6 9 - - 0.2
26/08:30pm 11.3 8.3 7.6 78 1.8 NNW 13 26 7 14 - - 0.2
26/08:00pm 12.0 9.7 7.3 73 2.3 NNE 9 15 5 8 - - 0.2
26/07:30pm 12.0 9.1 6.7 70 2.5 NE 11 15 6 8 - - 0.2
26/07:00pm 12.4 9.9 6.7 68 2.7 ENE 9 11 5 6 - - 0.2
26/06:30pm 12.8 10.7 6.8 67 2.9 NE 7 9 4 5 - - 0.2
26/06:00pm 12.7 10.2 6.7 67 2.9 N 9 11 5 6 - - 0.2
26/05:30pm 14.2 11.9 7.3 63 3.4 N 9 13 5 7 - - 0.2
26/05:00pm 15.1 12.1 5.9 54 4.4 NNW 11 15 6 8 - - 0.2

Other Formats:

Comma delimited format used in spreadsheet applications
http://www.bom.gov.au/fwo/IDV60801/IDV60801.95836.axf

JavaScript Object Notation format (JSON) in row-major order
http://www.bom.gov.au/fwo/IDV60801/IDV60801.95836.json